Flugplatz Blaubeuren (EDMC)

Hier findest Du alle Informationen zum Flugplatz Blaubeuren (EDMC).

Informationen für Piloten zum Flugplatz Blaubeuren

Hier findest Du alle relevanten Informationen, die Du als Pilot benötigst, um Blaubeuren anzufliegen.

Flugplatz: Blaubeuren ICAO-Code: EDMC
Frequenz Turm: 130,605 Mhz GAFOR Gebiet: 62
Frequenz Ground: 130,605 Mhz Mogas: ja
Platzrunde: N 3000 ft Landegebühr: 1. La €
Platzhöhe: - Sunrise: 03:27 Uhr UTC
Pisten: 10/28 - 556 m x 30 m, GRAS Sunset: 19:08 Uhr UTC

Mitglieder, die in Blaubeuren fliegen

Flugwetter am Flugplatz Blaubeuren

Die METAR Information stammen aus EDDS (51.98 km entfernt).

METAR Code:
2022/05/10 17:20
EDDS 101720Z 34004KT CAVOK 23/11 Q1018 NOSIG

Temperatur: 18,5 °C Niederschlag: - Wind: 1,2 kt (max.: 3,3 kt in Böen)
Temperatur (min.): 18,1 °C Luftdruck: 1017 hPa Windrichtung: 264 °
Temperatur (max.): 19,5 °C Luftfeuchtigkeit: 70 % Bewölkung: 5/8

Flugschulen am Flugplatz Blaubeuren

Am Flugplatz Blaubeuren gibt es leider keine Flugschule.

Benachbarte Flugplätze und Flugschulen

Es gibt 31 weitere Flugplätze in einem Umkreis von 50 km um den Flugplatz Blaubeuren.

Jetzt anmelden

Passwort vergessen

Umfrage Archiv

Sendet Ihr ADS-B und/oder FLARM?

Ja
81.6 %
Nein
18.4 %
Stimmen: 147 | Diskussion
Anzeige: Roland Aircraft
Statistik Alle Mitglieder

Aktuell sind 48 Besucher online, davon 2 Mitglieder und 46 Gäste.


Mitglieder online:
wolfgang w  Eldim 

Anzeige: ULPower Aero Engines Anzeige: Pocket FMS